sensor_id;sensor_type;location;lat;lon;timestamp;pressure;altitude;pressure_sealevel;temperature;humidity
8140;BME280;4111;50.972;7.072;2023-09-30T00:02:26;102020.56;;;14.95;98.40
8140;BME280;4111;50.972;7.072;2023-09-30T00:04:54;102015.66;;;14.97;98.95
8140;BME280;4111;50.972;7.072;2023-09-30T00:07:20;102020.66;;;15.00;98.95
8140;BME280;4111;50.972;7.072;2023-09-30T00:09:47;102027.22;;;14.99;98.91
8140;BME280;4111;50.972;7.072;2023-09-30T00:12:14;102023.22;;;14.90;98.92
8140;BME280;4111;50.972;7.072;2023-09-30T00:14:41;102034.28;;;14.83;99.31
8140;BME280;4111;50.972;7.072;2023-09-30T00:17:07;102033.81;;;14.86;99.34
8140;BME280;4111;50.972;7.072;2023-09-30T00:19:33;102034.03;;;14.84;99.17
8140;BME280;4111;50.972;7.072;2023-09-30T00:22:00;102048.06;;;14.88;99.23
8140;BME280;4111;50.972;7.072;2023-09-30T00:24:26;102055.84;;;14.79;98.82
8140;BME280;4111;50.972;7.072;2023-09-30T00:26:53;102052.50;;;14.77;98.83
8140;BME280;4111;50.972;7.072;2023-09-30T00:29:20;102050.63;;;14.66;98.84
8140;BME280;4111;50.972;7.072;2023-09-30T00:31:46;102051.47;;;14.55;99.14
8140;BME280;4111;50.972;7.072;2023-09-30T00:34:13;102053.00;;;14.51;99.40
8140;BME280;4111;50.972;7.072;2023-09-30T00:36:40;102051.84;;;14.46;99.42
8140;BME280;4111;50.972;7.072;2023-09-30T00:39:07;102044.47;;;14.47;99.24
8140;BME280;4111;50.972;7.072;2023-09-30T00:41:34;102043.25;;;14.55;99.36
8140;BME280;4111;50.972;7.072;2023-09-30T00:44:02;102038.28;;;14.52;99.33
8140;BME280;4111;50.972;7.072;2023-09-30T00:46:29;102048.38;;;14.51;99.25
8140;BME280;4111;50.972;7.072;2023-09-30T00:48:59;102043.41;;;14.48;99.49
8140;BME280;4111;50.972;7.072;2023-09-30T00:51:26;102041.28;;;14.38;99.77
8140;BME280;4111;50.972;7.072;2023-09-30T00:53:55;102044.97;;;14.32;100.00
8140;BME280;4111;50.972;7.072;2023-09-30T00:56:25;102038.41;;;14.45;100.00
8140;BME280;4111;50.972;7.072;2023-09-30T00:58:52;102056.84;;;14.50;100.00
8140;BME280;4111;50.972;7.072;2023-09-30T01:01:22;102052.19;;;14.50;99.80
8140;BME280;4111;50.972;7.072;2023-09-30T01:03:49;102052.78;;;14.40;100.00
8140;BME280;4111;50.972;7.072;2023-09-30T01:06:16;102059.69;;;14.31;100.00
8140;BME280;4111;50.972;7.072;2023-09-30T01:08:42;102061.47;;;14.25;100.00
8140;BME280;4111;50.972;7.072;2023-09-30T01:11:09;102056.13;;;14.31;100.00
8140;BME280;4111;50.972;7.072;2023-09-30T01:13:37;102055.41;;;14.35;100.00
8140;BME280;4111;50.972;7.072;2023-09-30T01:16:08;102058.25;;;14.40;100.00
8140;BME280;4111;50.972;7.072;2023-09-30T01:18:39;102057.34;;;14.11;100.00
8140;BME280;4111;50.972;7.072;2023-09-30T01:21:06;102073.94;;;13.98;100.00
8140;BME280;4111;50.972;7.072;2023-09-30T01:23:34;102068.16;;;14.06;100.00
8140;BME280;4111;50.972;7.072;2023-09-30T01:26:11;102064.56;;;14.05;100.00
8140;BME280;4111;50.972;7.072;2023-09-30T01:28:40;102054.97;;;14.03;100.00
8140;BME280;4111;50.972;7.072;2023-09-30T01:31:07;102058.06;;;14.06;100.00
8140;BME280;4111;50.972;7.072;2023-09-30T01:33:34;102054.00;;;14.09;100.00
8140;BME280;4111;50.972;7.072;2023-09-30T01:36:01;102044.75;;;14.10;100.00
8140;BME280;4111;50.972;7.072;2023-09-30T01:38:27;102052.22;;;14.15;100.00
8140;BME280;4111;50.972;7.072;2023-09-30T01:40:54;102070.03;;;14.17;100.00
8140;BME280;4111;50.972;7.072;2023-09-30T01:43:23;102070.53;;;14.14;100.00
8140;BME280;4111;50.972;7.072;2023-09-30T01:45:49;102062.06;;;14.16;100.00
8140;BME280;4111;50.972;7.072;2023-09-30T01:48:16;102078.59;;;14.21;100.00
8140;BME280;4111;50.972;7.072;2023-09-30T01:50:42;102082.50;;;14.25;100.00
8140;BME280;4111;50.972;7.072;2023-09-30T01:53:09;102062.44;;;14.07;100.00
8140;BME280;4111;50.972;7.072;2023-09-30T01:55:36;102056.16;;;13.95;100.00
8140;BME280;4111;50.972;7.072;2023-09-30T01:58:03;102053.53;;;14.00;100.00
8140;BME280;4111;50.972;7.072;2023-09-30T02:00:30;102060.19;;;14.04;100.00
8140;BME280;4111;50.972;7.072;2023-09-30T02:02:57;102069.44;;;14.03;100.00
8140;BME280;4111;50.972;7.072;2023-09-30T02:05:24;102079.91;;;14.06;100.00
8140;BME280;4111;50.972;7.072;2023-09-30T02:07:51;102082.16;;;14.09;100.00
8140;BME280;4111;50.972;7.072;2023-09-30T02:10:18;102077.53;;;13.98;100.00
8140;BME280;4111;50.972;7.072;2023-09-30T02:12:45;102075.13;;;13.90;100.00
8140;BME280;4111;50.972;7.072;2023-09-30T02:15:12;102071.34;;;13.91;100.00
8140;BME280;4111;50.972;7.072;2023-09-30T02:17:39;102077.53;;;13.98;100.00
8140;BME280;4111;50.972;7.072;2023-09-30T02:20:06;102084.63;;;13.99;100.00
8140;BME280;4111;50.972;7.072;2023-09-30T02:22:39;102084.53;;;13.94;100.00
8140;BME280;4111;50.972;7.072;2023-09-30T02:25:06;102088.78;;;13.90;100.00
8140;BME280;4111;50.972;7.072;2023-09-30T02:27:33;102076.34;;;13.94;100.00
8140;BME280;4111;50.972;7.072;2023-09-30T02:30:00;102072.06;;;13.98;100.00
8140;BME280;4111;50.972;7.072;2023-09-30T02:32:28;102084.41;;;13.89;100.00
8140;BME280;4111;50.972;7.072;2023-09-30T02:34:54;102085.94;;;13.85;100.00
8140;BME280;4111;50.972;7.072;2023-09-30T02:37:21;102084.16;;;13.79;100.00
8140;BME280;4111;50.972;7.072;2023-09-30T02:39:47;102082.97;;;13.75;100.00
8140;BME280;4111;50.972;7.072;2023-09-30T02:42:14;102070.72;;;13.65;100.00
8140;BME280;4111;50.972;7.072;2023-09-30T02:44:41;102072.25;;;13.61;100.00
8140;BME280;4111;50.972;7.072;2023-09-30T02:47:08;102073.00;;;13.68;100.00
8140;BME280;4111;50.972;7.072;2023-09-30T02:49:35;102077.00;;;13.66;100.00
8140;BME280;4111;50.972;7.072;2023-09-30T02:52:01;102071.06;;;13.57;100.00
8140;BME280;4111;50.972;7.072;2023-09-30T02:54:30;102070.56;;;13.60;100.00
8140;BME280;4111;50.972;7.072;2023-09-30T02:56:57;102072.72;;;13.58;100.00
8140;BME280;4111;50.972;7.072;2023-09-30T02:59:24;102077.13;;;13.59;100.00
8140;BME280;4111;50.972;7.072;2023-09-30T03:01:50;102077.22;;;13.64;100.00
8140;BME280;4111;50.972;7.072;2023-09-30T03:04:17;102089.47;;;13.74;100.00
8140;BME280;4111;50.972;7.072;2023-09-30T03:06:46;102091.81;;;13.58;100.00
8140;BME280;4111;50.972;7.072;2023-09-30T03:09:12;102086.25;;;13.53;100.00
8140;BME280;4111;50.972;7.072;2023-09-30T03:11:41;102091.81;;;13.58;100.00
8140;BME280;4111;50.972;7.072;2023-09-30T03:14:12;102088.63;;;13.61;100.00
8140;BME280;4111;50.972;7.072;2023-09-30T03:16:39;102085.31;;;13.59;100.00
8140;BME280;4111;50.972;7.072;2023-09-30T03:19:07;102090.06;;;13.64;100.00
8140;BME280;4111;50.972;7.072;2023-09-30T03:21:38;102095.69;;;13.51;100.00
8140;BME280;4111;50.972;7.072;2023-09-30T03:24:04;102090.00;;;13.40;100.00
8140;BME280;4111;50.972;7.072;2023-09-30T03:26:32;102085.47;;;13.34;100.00
8140;BME280;4111;50.972;7.072;2023-09-30T03:28:58;102090.84;;;13.41;100.00
8140;BME280;4111;50.972;7.072;2023-09-30T03:31:25;102092.88;;;13.45;100.00
8140;BME280;4111;50.972;7.072;2023-09-30T03:33:52;102102.34;;;13.43;100.00
8140;BME280;4111;50.972;7.072;2023-09-30T03:36:21;102099.84;;;13.41;100.00
8140;BME280;4111;50.972;7.072;2023-09-30T03:38:51;102110.16;;;13.39;100.00
8140;BME280;4111;50.972;7.072;2023-09-30T03:41:20;102100.81;;;13.28;100.00
8140;BME280;4111;50.972;7.072;2023-09-30T03:43:47;102097.97;;;13.23;100.00
8140;BME280;4111;50.972;7.072;2023-09-30T03:46:15;102088.81;;;13.18;100.00
8140;BME280;4111;50.972;7.072;2023-09-30T03:48:42;102090.47;;;13.19;100.00
8140;BME280;4111;50.972;7.072;2023-09-30T03:51:12;102080.31;;;13.26;100.00
8140;BME280;4111;50.972;7.072;2023-09-30T03:53:42;102075.06;;;13.24;100.00
8140;BME280;4111;50.972;7.072;2023-09-30T03:56:09;102080.63;;;13.18;100.00
8140;BME280;4111;50.972;7.072;2023-09-30T03:58:40;102087.13;;;13.17;100.00
8140;BME280;4111;50.972;7.072;2023-09-30T04:01:08;102079.09;;;13.22;100.00
8140;BME280;4111;50.972;7.072;2023-09-30T04:03:37;102081.47;;;13.18;100.00
8140;BME280;4111;50.972;7.072;2023-09-30T04:06:08;102072.53;;;13.11;100.00
8140;BME280;4111;50.972;7.072;2023-09-30T04:08:34;102065.81;;;13.14;100.00
8140;BME280;4111;50.972;7.072;2023-09-30T04:11:02;102061.06;;;13.21;100.00
8140;BME280;4111;50.972;7.072;2023-09-30T04:13:29;102069.03;;;13.22;100.00
8140;BME280;4111;50.972;7.072;2023-09-30T04:15:56;102080.31;;;13.26;100.00
8140;BME280;4111;50.972;7.072;2023-09-30T04:18:25;102079.00;;;13.28;100.00
8140;BME280;4111;50.972;7.072;2023-09-30T04:20:52;102085.09;;;13.31;100.00
8140;BME280;4111;50.972;7.072;2023-09-30T04:23:19;102072.53;;;13.29;100.00
8140;BME280;4111;50.972;7.072;2023-09-30T04:25:46;102083.25;;;13.24;100.00
8140;BME280;4111;50.972;7.072;2023-09-30T04:28:13;102083.91;;;13.08;100.00
8140;BME280;4111;50.972;7.072;2023-09-30T04:30:42;102088.44;;;13.14;100.00
8140;BME280;4111;50.972;7.072;2023-09-30T04:33:08;102083.22;;;13.13;100.00
8140;BME280;4111;50.972;7.072;2023-09-30T04:35:36;102081.78;;;13.10;100.00
8140;BME280;4111;50.972;7.072;2023-09-30T04:38:03;102085.22;;;13.05;100.00
8140;BME280;4111;50.972;7.072;2023-09-30T04:40:30;102079.50;;;13.07;100.00
8140;BME280;4111;50.972;7.072;2023-09-30T04:42:59;102088.16;;;13.04;100.00
8140;BME280;4111;50.972;7.072;2023-09-30T04:45:26;102085.66;;;13.02;100.00
8140;BME280;4111;50.972;7.072;2023-09-30T04:47:53;102083.16;;;13.01;100.00
8140;BME280;4111;50.972;7.072;2023-09-30T04:50:22;102091.50;;;13.06;100.00
8140;BME280;4111;50.972;7.072;2023-09-30T04:52:51;102103.00;;;13.08;100.00
8140;BME280;4111;50.972;7.072;2023-09-30T04:55:18;102105.72;;;13.08;100.00
8140;BME280;4111;50.972;7.072;2023-09-30T04:57:46;102114.72;;;13.08;100.00
8140;BME280;4111;50.972;7.072;2023-09-30T05:00:15;102108.44;;;13.08;100.00
8140;BME280;4111;50.972;7.072;2023-09-30T05:02:44;102114.50;;;13.10;100.00
8140;BME280;4111;50.972;7.072;2023-09-30T05:05:14;102116.63;;;13.08;100.00
8140;BME280;4111;50.972;7.072;2023-09-30T05:07:41;102119.22;;;13.03;100.00
8140;BME280;4111;50.972;7.072;2023-09-30T05:10:08;102119.41;;;12.89;100.00
8140;BME280;4111;50.972;7.072;2023-09-30T05:12:39;102112.56;;;12.80;100.00
8140;BME280;4111;50.972;7.072;2023-09-30T05:15:15;102106.75;;;12.77;100.00
8140;BME280;4111;50.972;7.072;2023-09-30T05:17:43;102104.47;;;12.74;100.00
8140;BME280;4111;50.972;7.072;2023-09-30T05:20:10;102111.97;;;12.78;100.00
8140;BME280;4111;50.972;7.072;2023-09-30T05:22:39;102125.72;;;12.83;100.00
8140;BME280;4111;50.972;7.072;2023-09-30T05:25:12;102125.06;;;12.88;100.00
8140;BME280;4111;50.972;7.072;2023-09-30T05:27:39;102126.81;;;12.82;100.00
8140;BME280;4111;50.972;7.072;2023-09-30T05:30:06;102120.16;;;12.78;100.00
8140;BME280;4111;50.972;7.072;2023-09-30T05:32:33;102118.72;;;12.76;100.00
8140;BME280;4111;50.972;7.072;2023-09-30T05:35:01;102131.06;;;12.78;100.00
8140;BME280;4111;50.972;7.072;2023-09-30T05:37:29;102128.31;;;12.78;100.00
8140;BME280;4111;50.972;7.072;2023-09-30T05:39:56;102138.91;;;12.86;100.00
8140;BME280;4111;50.972;7.072;2023-09-30T05:42:23;102143.31;;;12.87;100.00
8140;BME280;4111;50.972;7.072;2023-09-30T05:44:49;102137.00;;;12.87;100.00
8140;BME280;4111;50.972;7.072;2023-09-30T05:47:16;102142.25;;;12.88;100.00
8140;BME280;4111;50.972;7.072;2023-09-30T05:49:42;102142.84;;;12.90;100.00
8140;BME280;4111;50.972;7.072;2023-09-30T05:52:09;102141.22;;;12.89;100.00
8140;BME280;4111;50.972;7.072;2023-09-30T05:54:35;102134.91;;;12.89;100.00
8140;BME280;4111;50.972;7.072;2023-09-30T05:57:03;102130.75;;;12.86;100.00
8140;BME280;4111;50.972;7.072;2023-09-30T05:59:29;102139.09;;;12.92;100.00
8140;BME280;4111;50.972;7.072;2023-09-30T06:01:56;102132.78;;;12.91;100.00
8140;BME280;4111;50.972;7.072;2023-09-30T06:04:23;102133.97;;;12.95;100.00
8140;BME280;4111;50.972;7.072;2023-09-30T06:06:49;102136.97;;;12.94;100.00
8140;BME280;4111;50.972;7.072;2023-09-30T06:09:16;102138.59;;;12.95;100.00
8140;BME280;4111;50.972;7.072;2023-09-30T06:11:42;102138.91;;;12.86;100.00
8140;BME280;4111;50.972;7.072;2023-09-30T06:14:09;102144.97;;;12.88;100.00
8140;BME280;4111;50.972;7.072;2023-09-30T06:16:35;102152.41;;;13.00;100.00
8140;BME280;4111;50.972;7.072;2023-09-30T06:19:02;102153.59;;;13.04;100.00
8140;BME280;4111;50.972;7.072;2023-09-30T06:21:29;102150.19;;;13.08;100.00
8140;BME280;4111;50.972;7.072;2023-09-30T06:23:56;102151.47;;;13.06;100.00
8140;BME280;4111;50.972;7.072;2023-09-30T06:26:22;102155.19;;;13.12;100.00
8140;BME280;4111;50.972;7.072;2023-09-30T06:28:51;102150.56;;;13.12;100.00
8140;BME280;4111;50.972;7.072;2023-09-30T06:31:20;102145.94;;;13.13;100.00
8140;BME280;4111;50.972;7.072;2023-09-30T06:33:47;102146.53;;;13.15;100.00
8140;BME280;4111;50.972;7.072;2023-09-30T06:36:13;102150.13;;;13.15;100.00
8140;BME280;4111;50.972;7.072;2023-09-30T06:38:41;102153.44;;;13.17;100.00
8140;BME280;4111;50.972;7.072;2023-09-30T06:41:16;102156.06;;;13.42;100.00
8140;BME280;4111;50.972;7.072;2023-09-30T06:43:44;102152.78;;;13.52;100.00
8140;BME280;4111;50.972;7.072;2023-09-30T06:46:10;102161.19;;;13.51;100.00
8140;BME280;4111;50.972;7.072;2023-09-30T06:48:37;102170.69;;;13.48;100.00
8140;BME280;4111;50.972;7.072;2023-09-30T06:51:04;102170.50;;;13.61;100.00
8140;BME280;4111;50.972;7.072;2023-09-30T06:53:30;102177.44;;;13.76;100.00
8140;BME280;4111;50.972;7.072;2023-09-30T06:55:57;102168.78;;;13.79;100.00
8140;BME280;4111;50.972;7.072;2023-09-30T06:58:23;102168.34;;;13.94;100.00
8140;BME280;4111;50.972;7.072;2023-09-30T07:00:51;102177.88;;;14.03;100.00
8140;BME280;4111;50.972;7.072;2023-09-30T07:03:18;102175.59;;;14.12;100.00
8140;BME280;4111;50.972;7.072;2023-09-30T07:05:50;102183.00;;;14.23;100.00
8140;BME280;4111;50.972;7.072;2023-09-30T07:08:17;102188.72;;;14.33;100.00
8140;BME280;4111;50.972;7.072;2023-09-30T07:10:44;102177.56;;;14.46;100.00
8140;BME280;4111;50.972;7.072;2023-09-30T07:13:12;102173.53;;;14.61;100.00
8140;BME280;4111;50.972;7.072;2023-09-30T07:15:39;102170.69;;;14.79;100.00
8140;BME280;4111;50.972;7.072;2023-09-30T07:18:06;102166.88;;;14.80;100.00
8140;BME280;4111;50.972;7.072;2023-09-30T07:20:32;102176.59;;;15.00;100.00
8140;BME280;4111;50.972;7.072;2023-09-30T07:23:00;102186.09;;;15.09;100.00
8140;BME280;4111;50.972;7.072;2023-09-30T07:25:43;102195.69;;;15.23;100.00
8140;BME280;4111;50.972;7.072;2023-09-30T07:28:10;102193.31;;;15.15;100.00
8140;BME280;4111;50.972;7.072;2023-09-30T07:30:38;102193.13;;;15.34;100.00
8140;BME280;4111;50.972;7.072;2023-09-30T07:33:06;102194.66;;;15.41;100.00
8140;BME280;4111;50.972;7.072;2023-09-30T07:35:33;102195.31;;;15.20;100.00
8140;BME280;4111;50.972;7.072;2023-09-30T07:38:00;102200.09;;;15.24;100.00
8140;BME280;4111;50.972;7.072;2023-09-30T07:40:27;102212.41;;;15.39;100.00
8140;BME280;4111;50.972;7.072;2023-09-30T07:42:54;102218.78;;;15.56;100.00
8140;BME280;4111;50.972;7.072;2023-09-30T07:45:21;102222.31;;;15.69;100.00
8140;BME280;4111;50.972;7.072;2023-09-30T07:47:48;102230.38;;;15.75;100.00
8140;BME280;4111;50.972;7.072;2023-09-30T07:50:16;102234.97;;;15.46;99.48
8140;BME280;4111;50.972;7.072;2023-09-30T07:52:42;102229.66;;;15.39;100.00
8140;BME280;4111;50.972;7.072;2023-09-30T07:55:09;102221.28;;;15.17;100.00
8140;BME280;4111;50.972;7.072;2023-09-30T07:57:36;102217.94;;;15.15;100.00
8140;BME280;4111;50.972;7.072;2023-09-30T08:00:03;102216.16;;;15.21;100.00
8140;BME280;4111;50.972;7.072;2023-09-30T08:02:35;102212.22;;;15.29;100.00
8140;BME280;4111;50.972;7.072;2023-09-30T08:05:03;102215.22;;;15.44;100.00
8140;BME280;4111;50.972;7.072;2023-09-30T08:07:30;102215.88;;;15.63;100.00
8140;BME280;4111;50.972;7.072;2023-09-30T08:09:56;102219.81;;;15.67;100.00
8140;BME280;4111;50.972;7.072;2023-09-30T08:12:23;102225.50;;;15.65;99.83
8140;BME280;4111;50.972;7.072;2023-09-30T08:14:50;102230.91;;;15.60;99.96
8140;BME280;4111;50.972;7.072;2023-09-30T08:17:17;102251.97;;;15.60;100.00
8140;BME280;4111;50.972;7.072;2023-09-30T08:19:44;102254.47;;;15.61;100.00
8140;BME280;4111;50.972;7.072;2023-09-30T08:22:10;102254.72;;;15.48;100.00
8140;BME280;4111;50.972;7.072;2023-09-30T08:24:37;102266.66;;;15.42;100.00
8140;BME280;4111;50.972;7.072;2023-09-30T08:27:04;102250.59;;;15.45;100.00
8140;BME280;4111;50.972;7.072;2023-09-30T08:29:34;102264.84;;;15.47;100.00
8140;BME280;4111;50.972;7.072;2023-09-30T08:32:04;102258.94;;;15.39;99.84
8140;BME280;4111;50.972;7.072;2023-09-30T08:34:31;102263.38;;;15.16;99.83
8140;BME280;4111;50.972;7.072;2023-09-30T08:36:57;102276.59;;;15.07;100.00
8140;BME280;4111;50.972;7.072;2023-09-30T08:39:25;102270.16;;;15.14;100.00
8140;BME280;4111;50.972;7.072;2023-09-30T08:41:52;102269.44;;;15.06;100.00
8140;BME280;4111;50.972;7.072;2023-09-30T08:44:19;102262.19;;;15.12;100.00
8140;BME280;4111;50.972;7.072;2023-09-30T08:46:47;102264.69;;;15.14;100.00
8140;BME280;4111;50.972;7.072;2023-09-30T08:49:15;102266.69;;;15.30;100.00
8140;BME280;4111;50.972;7.072;2023-09-30T08:51:42;102265.63;;;15.31;100.00
8140;BME280;4111;50.972;7.072;2023-09-30T08:54:09;102273.22;;;15.41;100.00
8140;BME280;4111;50.972;7.072;2023-09-30T08:56:36;102269.38;;;15.54;100.00
8140;BME280;4111;50.972;7.072;2023-09-30T08:59:06;102266.59;;;15.65;100.00
8140;BME280;4111;50.972;7.072;2023-09-30T09:01:33;102270.66;;;15.75;99.61
8140;BME280;4111;50.972;7.072;2023-09-30T09:04:00;102270.50;;;15.81;99.47
8140;BME280;4111;50.972;7.072;2023-09-30T09:06:27;102259.16;;;15.90;99.29
8140;BME280;4111;50.972;7.072;2023-09-30T09:08:53;102245.31;;;15.96;99.03
8140;BME280;4111;50.972;7.072;2023-09-30T09:11:20;102242.38;;;15.86;99.16
8140;BME280;4111;50.972;7.072;2023-09-30T09:13:51;102232.16;;;15.81;98.51
8140;BME280;4111;50.972;7.072;2023-09-30T09:16:22;102226.78;;;15.86;98.70
8140;BME280;4111;50.972;7.072;2023-09-30T09:18:49;102225.63;;;15.99;98.83
8140;BME280;4111;50.972;7.072;2023-09-30T09:23:44;102227.25;;;16.29;98.17
8140;BME280;4111;50.972;7.072;2023-09-30T09:26:31;102227.75;;;16.43;97.88
8140;BME280;4111;50.972;7.072;2023-09-30T09:29:03;102233.63;;;16.52;97.07
8140;BME280;4111;50.972;7.072;2023-09-30T09:31:35;102231.63;;;16.64;96.62
8140;BME280;4111;50.972;7.072;2023-09-30T09:34:03;102228.88;;;16.64;95.25
8140;BME280;4111;50.972;7.072;2023-09-30T09:36:43;102221.22;;;16.66;94.39
8140;BME280;4111;50.972;7.072;2023-09-30T09:39:10;102217.91;;;16.64;94.29
8140;BME280;4111;50.972;7.072;2023-09-30T09:41:53;102215.59;;;16.73;94.34
8140;BME280;4111;50.972;7.072;2023-09-30T09:44:21;102223.22;;;16.88;94.23
8140;BME280;4111;50.972;7.072;2023-09-30T09:46:49;102232.69;;;16.97;93.65
8140;BME280;4111;50.972;7.072;2023-09-30T09:49:20;102224.84;;;17.05;93.43
8140;BME280;4111;50.972;7.072;2023-09-30T09:51:48;102224.16;;;17.15;93.39
8140;BME280;4111;50.972;7.072;2023-09-30T09:54:15;102233.03;;;17.22;93.28
8140;BME280;4111;50.972;7.072;2023-09-30T09:56:45;102230.66;;;17.31;92.79
8140;BME280;4111;50.972;7.072;2023-09-30T09:59:12;102232.09;;;17.34;92.55
8140;BME280;4111;50.972;7.072;2023-09-30T10:01:42;102225.25;;;17.36;91.76
8140;BME280;4111;50.972;7.072;2023-09-30T10:04:12;102225.34;;;17.47;92.15
8140;BME280;4111;50.972;7.072;2023-09-30T10:06:44;102231.63;;;17.42;90.88
8140;BME280;4111;50.972;7.072;2023-09-30T10:09:15;102233.38;;;17.53;90.81
8140;BME280;4111;50.972;7.072;2023-09-30T10:11:44;102236.84;;;17.66;91.30
8140;BME280;4111;50.972;7.072;2023-09-30T10:14:29;102227.25;;;17.68;90.16
8140;BME280;4111;50.972;7.072;2023-09-30T10:16:56;102237.19;;;17.74;89.25
8140;BME280;4111;50.972;7.072;2023-09-30T10:19:23;102233.66;;;17.79;89.56
8140;BME280;4111;50.972;7.072;2023-09-30T10:24:56;102244.75;;;17.84;88.69
8140;BME280;4111;50.972;7.072;2023-09-30T10:35:18;102264.44;;;17.76;85.44
8140;BME280;4111;50.972;7.072;2023-09-30T10:37:45;102253.44;;;17.76;85.40
8140;BME280;4111;50.972;7.072;2023-09-30T10:40:30;102233.75;;;17.84;85.52
8140;BME280;4111;50.972;7.072;2023-09-30T10:42:59;102239.34;;;17.94;85.42
8140;BME280;4111;50.972;7.072;2023-09-30T10:45:42;102240.00;;;18.01;84.97
8140;BME280;4111;50.972;7.072;2023-09-30T10:50:55;102234.00;;;18.10;83.16
8140;BME280;4111;50.972;7.072;2023-09-30T10:53:23;102237.41;;;18.22;83.68
8140;BME280;4111;50.972;7.072;2023-09-30T10:55:59;102241.88;;;18.28;82.85
8140;BME280;4111;50.972;7.072;2023-09-30T11:01:05;102249.06;;;18.34;82.36
8140;BME280;4111;50.972;7.072;2023-09-30T11:03:31;102255.19;;;18.41;81.61
8140;BME280;4111;50.972;7.072;2023-09-30T11:05:58;102255.25;;;18.52;81.80
8140;BME280;4111;50.972;7.072;2023-09-30T11:08:37;102250.94;;;18.61;81.36
8140;BME280;4111;50.972;7.072;2023-09-30T11:11:04;102243.47;;;18.56;80.37
8140;BME280;4111;50.972;7.072;2023-09-30T11:13:32;102239.06;;;18.55;78.50
8140;BME280;4111;50.972;7.072;2023-09-30T11:16:04;102224.47;;;18.55;77.85
8140;BME280;4111;50.972;7.072;2023-09-30T11:18:31;102227.81;;;18.62;77.29
8140;BME280;4111;50.972;7.072;2023-09-30T11:21:09;102230.50;;;18.52;75.57
8140;BME280;4111;50.972;7.072;2023-09-30T11:23:37;102225.63;;;18.59;75.72
8140;BME280;4111;50.972;7.072;2023-09-30T11:26:04;102220.34;;;18.52;76.07
8140;BME280;4111;50.972;7.072;2023-09-30T11:28:42;102216.50;;;18.53;76.24
8140;BME280;4111;50.972;7.072;2023-09-30T11:31:11;102219.56;;;18.62;76.31
8140;BME280;4111;50.972;7.072;2023-09-30T11:33:49;102217.41;;;18.69;76.18
8140;BME280;4111;50.972;7.072;2023-09-30T11:36:18;102218.38;;;18.85;76.17
8140;BME280;4111;50.972;7.072;2023-09-30T11:38:46;102209.31;;;18.90;76.01
8140;BME280;4111;50.972;7.072;2023-09-30T11:41:17;102207.16;;;18.92;75.36
8140;BME280;4111;50.972;7.072;2023-09-30T11:43:58;102203.28;;;18.93;74.18
8140;BME280;4111;50.972;7.072;2023-09-30T11:46:28;102203.88;;;19.00;74.63
8140;BME280;4111;50.972;7.072;2023-09-30T11:49:03;102213.03;;;19.16;75.19
8140;BME280;4111;50.972;7.072;2023-09-30T11:51:42;102202.28;;;19.14;74.37
8140;BME280;4111;50.972;7.072;2023-09-30T11:54:14;102204.75;;;19.11;73.93
8140;BME280;4111;50.972;7.072;2023-09-30T11:56:40;102195.63;;;19.05;73.37
8140;BME280;4111;50.972;7.072;2023-09-30T11:59:07;102185.16;;;19.07;73.82
8140;BME280;4111;50.972;7.072;2023-09-30T12:01:33;102183.00;;;19.14;74.11
8140;BME280;4111;50.972;7.072;2023-09-30T12:04:00;102185.78;;;19.19;73.57
8140;BME280;4111;50.972;7.072;2023-09-30T12:06:26;102185.53;;;19.26;73.39
8140;BME280;4111;50.972;7.072;2023-09-30T12:08:53;102182.00;;;19.36;73.72
8140;BME280;4111;50.972;7.072;2023-09-30T12:11:20;102179.78;;;19.38;72.85
8140;BME280;4111;50.972;7.072;2023-09-30T12:13:46;102177.56;;;19.35;71.02
8140;BME280;4111;50.972;7.072;2023-09-30T12:16:16;102179.22;;;19.36;70.59
8140;BME280;4111;50.972;7.072;2023-09-30T12:18:45;102176.47;;;19.36;70.47
8140;BME280;4111;50.972;7.072;2023-09-30T12:21:12;102170.13;;;19.30;70.37
8140;BME280;4111;50.972;7.072;2023-09-30T12:23:40;102166.53;;;19.30;69.82
8140;BME280;4111;50.972;7.072;2023-09-30T12:26:06;102158.84;;;19.32;70.28
8140;BME280;4111;50.972;7.072;2023-09-30T12:28:40;102153.88;;;19.39;70.48
8140;BME280;4111;50.972;7.072;2023-09-30T12:31:07;102141.22;;;19.43;70.64
8140;BME280;4111;50.972;7.072;2023-09-30T12:33:33;102130.78;;;19.50;70.82
8140;BME280;4111;50.972;7.072;2023-09-30T12:36:01;102123.63;;;19.49;68.52
8140;BME280;4111;50.972;7.072;2023-09-30T12:38:28;102119.22;;;19.53;68.71
8140;BME280;4111;50.972;7.072;2023-09-30T12:40:55;102114.81;;;19.57;68.94
8140;BME280;4111;50.972;7.072;2023-09-30T12:43:21;102114.25;;;19.60;68.67
8140;BME280;4111;50.972;7.072;2023-09-30T12:45:48;102137.16;;;19.61;68.03
8140;BME280;4111;50.972;7.072;2023-09-30T12:48:15;102145.13;;;19.68;68.05
8140;BME280;4111;50.972;7.072;2023-09-30T12:50:41;102144.28;;;19.62;67.64
8140;BME280;4111;50.972;7.072;2023-09-30T12:53:08;102150.97;;;19.71;68.10
8140;BME280;4111;50.972;7.072;2023-09-30T12:55:34;102147.91;;;19.78;68.32
8140;BME280;4111;50.972;7.072;2023-09-30T12:58:01;102141.88;;;19.81;67.45
8140;BME280;4111;50.972;7.072;2023-09-30T13:00:27;102139.13;;;19.96;67.71
8140;BME280;4111;50.972;7.072;2023-09-30T13:02:57;102131.94;;;19.95;67.35
8140;BME280;4111;50.972;7.072;2023-09-30T13:05:24;102144.06;;;19.99;67.55
8140;BME280;4111;50.972;7.072;2023-09-30T13:07:52;102141.31;;;20.05;67.75
8140;BME280;4111;50.972;7.072;2023-09-30T13:10:22;102144.06;;;19.94;66.78
8140;BME280;4111;50.972;7.072;2023-09-30T13:12:48;102139.94;;;19.97;67.09
8140;BME280;4111;50.972;7.072;2023-09-30T13:15:20;102136.34;;;20.01;66.35
8140;BME280;4111;50.972;7.072;2023-09-30T13:17:47;102125.88;;;20.09;65.82
8140;BME280;4111;50.972;7.072;2023-09-30T13:20:14;102126.13;;;20.17;64.89
8140;BME280;4111;50.972;7.072;2023-09-30T13:22:40;102114.00;;;20.18;63.97
8140;BME280;4111;50.972;7.072;2023-09-30T13:25:07;102124.19;;;20.23;64.76
8140;BME280;4111;50.972;7.072;2023-09-30T13:27:38;102130.25;;;20.35;64.34
8140;BME280;4111;50.972;7.072;2023-09-30T13:30:09;102132.41;;;20.44;64.33